createdAt,value
2023-01-23T00:02:05.180Z,-1.40
2023-01-23T00:06:12.884Z,-1.60
2023-01-23T00:10:16.433Z,-1.60
2023-01-23T00:14:19.788Z,-1.50
2023-01-23T00:18:23.025Z,-1.80
2023-01-23T00:22:27.656Z,-1.50
2023-01-23T00:26:33.952Z,-1.70
2023-01-23T00:30:37.384Z,-1.80
2023-01-23T00:34:40.750Z,-1.90
2023-01-23T00:38:45.465Z,-2.00
2023-01-23T00:42:48.740Z,-1.80
2023-01-23T00:46:52.227Z,-1.70
2023-01-23T00:50:55.570Z,-2.30
2023-01-23T00:55:05.084Z,-1.80
2023-01-23T00:59:08.407Z,-1.90
2023-01-23T01:03:11.882Z,-1.80
2023-01-23T01:07:15.253Z,-2.00
2023-01-23T01:11:20.061Z,-1.70
2023-01-23T01:15:23.406Z,-1.80
2023-01-23T01:19:28.290Z,-1.90
2023-01-23T01:23:31.642Z,-1.80
2023-01-23T01:27:36.300Z,-1.80
2023-01-23T01:31:39.774Z,-1.70
2023-01-23T01:35:43.852Z,-1.70
2023-01-23T01:39:47.284Z,-1.60
2023-01-23T01:43:53.537Z,-1.70
2023-01-23T01:47:57.108Z,-1.60
2023-01-23T01:52:03.150Z,-1.60
2023-01-23T01:56:09.914Z,-1.60
2023-01-23T02:00:16.949Z,-1.60
2023-01-23T02:04:20.787Z,-1.50
2023-01-23T02:08:31.661Z,-1.50
2023-01-23T02:12:38.711Z,-1.20
2023-01-23T02:16:50.515Z,-1.30
2023-01-23T02:20:55.902Z,-1.30
2023-01-23T02:25:07.815Z,-1.20
2023-01-23T02:29:13.875Z,-1.30
2023-01-23T02:33:45.874Z,-1.10
2023-01-23T02:37:53.210Z,-1.20
2023-01-23T02:41:57.302Z,-1.00
2023-01-23T02:46:03.431Z,-1.20
2023-01-23T02:50:07.753Z,-1.10
2023-01-23T02:54:11.144Z,-1.10
2023-01-23T02:58:32.020Z,-0.90
2023-01-23T03:02:38.245Z,-1.10
2023-01-23T03:06:41.575Z,-1.10
2023-01-23T03:10:45.046Z,-1.20
2023-01-23T03:14:53.819Z,-1.10
2023-01-23T03:19:01.569Z,-1.10
2023-01-23T03:23:04.969Z,-1.00
2023-01-23T03:27:08.448Z,-1.00
2023-01-23T03:31:11.377Z,-1.10
2023-01-23T03:35:18.202Z,-1.20
2023-01-23T03:39:39.288Z,-1.00
2023-01-23T03:43:42.774Z,-1.20
2023-01-23T03:47:46.033Z,-1.00
2023-01-23T03:51:51.872Z,-1.10
2023-01-23T03:55:55.154Z,-1.00
2023-01-23T03:59:58.593Z,-1.00
2023-01-23T04:04:02.029Z,-0.90
2023-01-23T04:08:07.068Z,-0.90
2023-01-23T04:12:10.363Z,-0.70
2023-01-23T04:16:14.289Z,-0.70
2023-01-23T04:20:18.231Z,-0.80
2023-01-23T04:24:24.165Z,-0.70
2023-01-23T04:28:27.580Z,-0.90
2023-01-23T04:32:30.979Z,-0.80
2023-01-23T04:36:34.464Z,-0.70
2023-01-23T04:40:39.186Z,-0.90
2023-01-23T04:44:42.433Z,-0.80
2023-01-23T04:48:48.619Z,-0.70
2023-01-23T04:52:52.280Z,-0.60
2023-01-23T04:56:56.953Z,-0.50
2023-01-23T05:01:04.414Z,-0.50
2023-01-23T05:05:08.897Z,-0.40
2023-01-23T05:09:13.725Z,-0.60
2023-01-23T05:13:18.568Z,-0.50
2023-01-23T05:17:21.825Z,-0.40
2023-01-23T05:21:25.290Z,-0.40
2023-01-23T05:25:30.055Z,-0.60
2023-01-23T05:29:34.810Z,-0.30
2023-01-23T05:33:38.068Z,-0.70
2023-01-23T05:37:41.486Z,-0.40
2023-01-23T05:41:44.836Z,-0.60
2023-01-23T05:45:49.968Z,-0.40
2023-01-23T05:49:53.230Z,-0.70
2023-01-23T05:53:56.435Z,-0.40
2023-01-23T05:58:00.011Z,-0.60
2023-01-23T06:02:05.094Z,-0.50
2023-01-23T06:06:08.819Z,-0.60
2023-01-23T06:10:12.582Z,-0.60
2023-01-23T06:14:15.884Z,-0.30
2023-01-23T06:18:20.993Z,-0.50
2023-01-23T06:22:24.310Z,-0.40
2023-01-23T06:26:27.851Z,-0.40
2023-01-23T06:30:31.684Z,-0.40
2023-01-23T06:34:36.725Z,-0.30
2023-01-23T06:38:40.052Z,-0.50
2023-01-23T06:42:44.325Z,-0.10
2023-01-23T06:46:47.572Z,-0.10
2023-01-23T06:50:52.504Z,-0.10
2023-01-23T06:54:56.065Z,-0.10
2023-01-23T06:58:59.398Z,0.10
2023-01-23T07:03:03.978Z,0.20
2023-01-23T07:07:08.668Z,0.10
2023-01-23T07:11:13.156Z,0.20
2023-01-23T07:15:16.551Z,0.50
2023-01-23T07:19:19.913Z,0.30
2023-01-23T07:23:24.807Z,0.40
2023-01-23T07:27:28.147Z,0.40
2023-01-23T07:31:31.490Z,0.40
2023-01-23T07:35:34.911Z,0.10
2023-01-23T07:39:39.714Z,0.50
2023-01-23T07:43:43.040Z,0.50
2023-01-23T07:47:46.485Z,0.60
2023-01-23T07:51:49.737Z,1.10
2023-01-23T07:55:54.562Z,1.30
2023-01-23T07:59:58.036Z,1.40
2023-01-23T08:04:01.645Z,1.40
2023-01-23T08:08:13.174Z,1.50
2023-01-23T08:12:18.787Z,1.60
2023-01-23T08:16:22.305Z,1.60
2023-01-23T08:20:25.581Z,1.70
2023-01-23T08:24:29.121Z,1.70
2023-01-23T08:28:34.109Z,1.90
2023-01-23T08:32:37.774Z,2.00
2023-01-23T08:36:41.201Z,2.20
2023-01-23T08:40:44.630Z,2.20
2023-01-23T08:44:49.216Z,2.00
2023-01-23T08:48:52.667Z,1.90
2023-01-23T08:52:57.151Z,1.80
2023-01-23T08:57:00.672Z,1.80
2023-01-23T09:01:06.103Z,2.00
2023-01-23T09:05:10.509Z,2.20
2023-01-23T09:09:13.812Z,2.40
2023-01-23T09:13:17.207Z,2.50
2023-01-23T09:17:22.256Z,2.60
2023-01-23T09:21:25.672Z,2.80
2023-01-23T09:25:31.290Z,2.90
2023-01-23T09:29:34.564Z,2.80
2023-01-23T09:33:39.548Z,2.80
2023-01-23T09:38:01.037Z,2.80
2023-01-23T09:42:08.461Z,2.90
2023-01-23T09:46:19.465Z,2.70
2023-01-23T09:50:29.333Z,2.80
2023-01-23T09:54:44.532Z,2.90
2023-01-23T09:59:00.697Z,3.10
2023-01-23T10:03:12.506Z,3.20
2023-01-23T10:07:32.360Z,3.40
2023-01-23T10:11:46.353Z,3.40
2023-01-23T10:16:13.506Z,3.50
2023-01-23T10:20:58.675Z,3.70
2023-01-23T10:25:12.828Z,4.00
2023-01-23T10:29:21.639Z,4.10
2023-01-23T10:33:35.221Z,4.10
2023-01-23T10:37:44.876Z,4.10
2023-01-23T10:41:54.352Z,4.20
2023-01-23T10:46:12.664Z,4.20
2023-01-23T10:50:16.493Z,4.20
2023-01-23T10:54:36.623Z,4.30
2023-01-23T10:58:42.224Z,4.40
2023-01-23T11:02:45.715Z,4.50
2023-01-23T11:07:03.453Z,4.40
2023-01-23T11:11:25.719Z,4.30
2023-01-23T11:15:32.443Z,4.30
2023-01-23T11:19:38.751Z,4.20
2023-01-23T11:23:43.329Z,4.20
2023-01-23T11:27:58.155Z,4.20
2023-01-23T11:32:08.284Z,4.20
2023-01-23T11:36:31.844Z,4.30
2023-01-23T11:40:35.087Z,4.20
2023-01-23T11:44:45.999Z,4.30
2023-01-23T11:49:13.396Z,4.40
2023-01-23T11:53:33.538Z,4.40
2023-01-23T11:57:56.735Z,4.30
2023-01-23T12:02:21.230Z,4.30
2023-01-23T12:06:40.579Z,4.40
2023-01-23T12:10:52.999Z,4.40
2023-01-23T12:15:04.754Z,4.50
2023-01-23T12:19:23.541Z,4.40
2023-01-23T12:23:39.501Z,4.50
2023-01-23T12:27:45.441Z,4.50
2023-01-23T12:32:00.737Z,4.40
2023-01-23T12:36:29.521Z,4.40
2023-01-23T12:40:41.416Z,4.40
2023-01-23T12:44:50.306Z,4.40
2023-01-23T12:49:00.130Z,4.30
2023-01-23T12:53:08.335Z,4.30
2023-01-23T12:57:14.493Z,4.20
2023-01-23T13:01:29.834Z,4.10
2023-01-23T13:05:41.530Z,4.00
2023-01-23T13:09:57.866Z,4.10
2023-01-23T13:14:02.867Z,3.90
2023-01-23T13:18:08.895Z,3.90
2023-01-23T13:22:27.203Z,3.80
2023-01-23T13:26:32.072Z,3.80
2023-01-23T13:31:04.447Z,3.80
2023-01-23T13:36:02.616Z,3.70
2023-01-23T13:40:17.101Z,3.60
2023-01-23T13:44:35.725Z,3.70
2023-01-23T14:20:21.425Z,3.70
2023-01-23T14:24:29.413Z,3.80
2023-01-23T14:28:32.889Z,3.90
2023-01-23T14:32:38.545Z,4.00
2023-01-23T14:36:46.482Z,4.00
2023-01-23T14:40:51.440Z,4.00
2023-01-23T14:44:56.780Z,4.00
2023-01-23T14:49:00.118Z,4.10
2023-01-23T14:53:05.857Z,4.10
2023-01-23T14:57:13.375Z,4.10
2023-01-23T15:01:16.932Z,4.10
2023-01-23T15:05:23.720Z,4.10
2023-01-23T15:09:31.497Z,4.10
2023-01-23T15:13:43.132Z,4.10
2023-01-23T15:17:47.382Z,4.10
2023-01-23T15:21:52.360Z,4.10
2023-01-23T15:26:12.571Z,4.00
2023-01-23T15:30:41.895Z,4.10
2023-01-23T15:34:54.882Z,4.10
2023-01-23T15:38:59.774Z,4.10
2023-01-23T15:43:05.747Z,4.00
2023-01-23T15:47:11.115Z,4.10
2023-01-23T15:51:15.501Z,4.10
2023-01-23T15:55:20.211Z,4.00
2023-01-23T15:59:23.727Z,3.90
2023-01-23T16:03:28.664Z,3.80
2023-01-23T16:07:34.819Z,3.70
2023-01-23T16:11:39.082Z,3.70
2023-01-23T16:15:43.489Z,3.70
2023-01-23T16:19:48.222Z,3.70
2023-01-23T16:24:00.687Z,3.70
2023-01-23T16:28:03.967Z,3.70
2023-01-23T16:32:07.961Z,3.50
2023-01-23T16:36:15.775Z,3.40
2023-01-23T16:40:24.107Z,3.30
2023-01-23T16:44:28.529Z,3.30
2023-01-23T16:48:32.062Z,3.30
2023-01-23T16:52:37.778Z,3.30
2023-01-23T16:56:43.207Z,3.40
2023-01-23T17:00:48.667Z,3.30
2023-01-23T17:04:53.425Z,3.40
2023-01-23T17:08:58.585Z,3.40
2023-01-23T17:13:02.029Z,3.30
2023-01-23T17:17:10.510Z,3.30
2023-01-23T17:21:19.971Z,3.30
2023-01-23T17:25:27.228Z,3.40
2023-01-23T17:29:31.229Z,3.30
2023-01-23T17:33:34.736Z,3.40
2023-01-23T17:37:38.554Z,3.30
2023-01-23T17:41:46.190Z,3.20
2023-01-23T17:45:54.175Z,3.20
2023-01-23T17:49:58.675Z,3.20
2023-01-23T17:54:02.835Z,3.20
2023-01-23T17:58:11.644Z,3.20
2023-01-23T18:02:28.858Z,3.30
2023-01-23T18:06:33.855Z,3.20
2023-01-23T18:10:39.177Z,3.40
2023-01-23T18:14:51.490Z,3.40
2023-01-23T18:19:08.509Z,3.40
2023-01-23T18:23:14.058Z,3.30
2023-01-23T18:27:23.887Z,3.30
2023-01-23T18:31:38.169Z,3.30
2023-01-23T18:36:12.982Z,3.30
2023-01-23T18:40:23.874Z,3.40
2023-01-23T18:44:30.334Z,3.30
2023-01-23T18:48:37.987Z,3.30
2023-01-23T18:52:51.668Z,3.20
2023-01-23T18:57:08.155Z,3.20
2023-01-23T19:01:23.487Z,3.20
2023-01-23T19:05:59.036Z,3.30
2023-01-23T19:10:08.880Z,3.20
2023-01-23T19:14:28.087Z,3.20
2023-01-23T19:19:10.754Z,3.20
2023-01-23T19:23:44.571Z,3.20
2023-01-23T19:27:57.676Z,3.20
2023-01-23T19:32:17.308Z,3.30
2023-01-23T19:36:24.111Z,3.30
2023-01-23T19:40:31.241Z,3.30
2023-01-23T19:44:46.064Z,3.30
2023-01-23T19:48:57.693Z,3.30
2023-01-23T19:53:06.153Z,3.30
2023-01-23T19:57:15.905Z,3.30
2023-01-23T20:01:33.828Z,3.40
2023-01-23T20:05:43.633Z,3.30
2023-01-23T20:09:53.065Z,3.20
2023-01-23T20:14:03.398Z,3.30
2023-01-23T20:18:09.162Z,3.30
2023-01-23T20:22:16.681Z,3.20
2023-01-23T20:26:24.001Z,3.20
2023-01-23T20:30:32.122Z,3.20
2023-01-23T20:34:37.991Z,3.40
2023-01-23T20:38:44.719Z,3.30
2023-01-23T20:42:52.619Z,3.30
2023-01-23T20:46:58.897Z,3.20
2023-01-23T20:51:05.801Z,3.20
2023-01-23T20:55:15.149Z,3.20
2023-01-23T20:59:25.230Z,3.20
2023-01-23T21:03:38.363Z,3.20
2023-01-23T21:07:43.866Z,3.20
2023-01-23T21:11:50.394Z,3.20
2023-01-23T21:16:02.269Z,3.20
2023-01-23T21:20:09.290Z,3.20
2023-01-23T21:24:14.551Z,3.20
2023-01-23T21:28:18.059Z,3.10
2023-01-23T21:32:22.430Z,3.20
2023-01-23T21:36:27.527Z,3.30
2023-01-23T21:40:31.141Z,3.30
2023-01-23T21:44:35.961Z,3.20
2023-01-23T21:48:39.348Z,3.20
2023-01-23T21:52:44.372Z,3.30
2023-01-23T21:56:47.646Z,3.30
2023-01-23T22:01:14.165Z,3.30
2023-01-23T22:05:17.622Z,3.30
2023-01-23T22:09:24.690Z,3.20
2023-01-23T22:13:27.980Z,3.20
2023-01-23T22:17:31.789Z,3.20
2023-01-23T22:21:35.334Z,3.00
2023-01-23T22:25:40.146Z,3.00
2023-01-23T22:29:44.014Z,3.10
2023-01-23T22:33:48.315Z,3.10
2023-01-23T22:37:51.595Z,3.00
2023-01-23T22:41:57.781Z,3.00
2023-01-23T22:46:08.541Z,2.90
2023-01-23T22:50:12.858Z,3.00
2023-01-23T22:54:16.306Z,2.90
2023-01-23T22:58:20.931Z,2.90
2023-01-23T23:02:24.289Z,2.90
2023-01-23T23:06:28.062Z,2.80
2023-01-23T23:10:31.336Z,2.90
2023-01-23T23:14:37.319Z,2.80
2023-01-23T23:18:40.867Z,2.90
2023-01-23T23:22:45.460Z,2.90
2023-01-23T23:26:49.278Z,2.90
2023-01-23T23:30:54.265Z,2.90
2023-01-23T23:34:59.383Z,2.80
2023-01-23T23:39:02.995Z,2.80
2023-01-23T23:43:08.063Z,2.80
2023-01-23T23:47:12.725Z,2.80
2023-01-23T23:51:18.802Z,2.70
2023-01-23T23:55:22.452Z,2.80
2023-01-23T23:59:26.163Z,2.80
